Time;durP1;ratioP1;P1;durP2;ratioP2;P2;SDS_P1;SDS_P2;PMS_P1;PMS_P2;Temp;Humidity;BMP_temperature;BMP_pressure;BME280_temperature;BME280_humidity;BME280_pressure;Samples;Min_cycle;Max_cycle;Signal;HPM_P1;HPM_P2
2023/10/28 00:00:59;;;;;;;17.67;12.80;;;;;;;9.42;100.00;99519.47;4936117;29;20055;-80
2023/10/28 00:03:27;;;;;;;16.90;11.20;;;;;;;9.42;100.00;99523.84;4905016;28;20051;-80
2023/10/28 00:05:54;;;;;;;18.38;12.82;;;;;;;9.43;100.00;99522.94;4935953;29;20054;-79
2023/10/28 00:08:21;;;;;;;22.30;13.07;;;;;;;9.41;100.00;99524.72;4909567;28;20055;-77
2023/10/28 00:10:50;;;;;;;17.58;12.38;;;;;;;9.40;100.00;99513.34;4910979;29;20038;-78
2023/10/28 00:13:18;;;;;;;19.52;12.93;;;;;;;9.38;100.00;99527.44;4933956;29;20088;-78
2023/10/28 00:15:45;;;;;;;19.63;12.88;;;;;;;9.38;100.00;99516.91;4921462;29;20284;-78
2023/10/28 00:18:14;;;;;;;21.77;14.07;;;;;;;9.36;100.00;99515.16;4879644;29;20051;-78
2023/10/28 00:20:41;;;;;;;22.13;13.68;;;;;;;9.38;100.00;99509.88;4883493;29;20063;-79
2023/10/28 00:23:14;;;;;;;24.33;14.55;;;;;;;9.40;100.00;99512.50;4908577;28;20063;-79
2023/10/28 00:25:42;;;;;;;;;;;;;;;9.38;100.00;99509.88;4936461;29;20073;-78
2023/10/28 00:28:09;;;;;;;20.92;13.90;;;;;;;9.37;100.00;99510.75;4943078;28;20411;-79
2023/10/28 00:30:38;;;;;;;20.08;14.38;;;;;;;9.34;100.00;99514.31;4936374;29;20054;-78
2023/10/28 00:33:06;;;;;;;23.08;13.82;;;;;;;9.34;100.00;99508.19;4887101;28;20091;-78
2023/10/28 00:35:34;;;;;;;20.98;13.15;;;;;;;9.33;100.00;99515.19;4929209;29;20044;-79
2023/10/28 00:38:01;;;;;;;18.38;12.98;;;;;;;9.33;100.00;99509.91;4945496;29;20058;-78
2023/10/28 00:40:30;;;;;;;21.77;13.07;;;;;;;9.33;100.00;99509.91;4928166;29;20058;-78
2023/10/28 00:43:01;;;;;;;17.92;12.27;;;;;;;9.31;100.00;99506.44;4925649;29;20047;-77
2023/10/28 00:45:28;;;;;;;18.50;12.82;;;;;;;9.33;100.00;99502.03;4924526;29;20047;-78
2023/10/28 00:47:57;;;;;;;20.13;13.27;;;;;;;9.34;100.00;99509.03;4923439;28;20047;-78
2023/10/28 00:50:26;;;;;;;21.67;13.68;;;;;;;9.34;100.00;99511.69;4908772;28;20047;-80
2023/10/28 00:52:55;;;;;;;20.58;13.82;;;;;;;9.33;100.00;99509.91;4935852;29;20063;-79
2023/10/28 00:55:23;;;;;;;17.05;12.15;;;;;;;9.33;100.00;99504.66;4924531;29;20408;-77
2023/10/28 00:57:51;;;;;;;18.85;13.32;;;;;;;9.33;100.00;99507.28;4921193;28;20078;-79
2023/10/28 01:00:20;;;;;;;20.35;13.30;;;;;;;9.32;100.00;99507.34;4926045;29;20054;-79
2023/10/28 01:02:48;;;;;;;17.45;11.98;;;;;;;9.32;100.00;99513.47;4906462;29;20055;-79
2023/10/28 01:05:16;;;;;;;17.90;12.38;;;;;;;9.33;100.00;99503.81;4883415;28;20063;-79
2023/10/28 01:07:46;;;;;;;20.02;13.48;;;;;;;9.33;100.00;99498.53;4920248;29;20062;-78
2023/10/28 01:10:28;;;;;;;19.77;12.93;;;;;;;9.31;100.00;99501.19;4923589;29;20186;-78
2023/10/28 01:12:58;;;;;;;21.70;15.40;;;;;;;9.32;100.00;99507.34;4928609;28;20058;-78
2023/10/28 01:15:26;;;;;;;21.67;15.05;;;;;;;9.31;100.00;99500.34;4914980;29;20055;-79
2023/10/28 01:17:54;;;;;;;24.05;14.02;;;;;;;9.32;100.00;99507.34;4935499;29;20078;-78
2023/10/28 01:20:21;;;;;;;25.05;15.82;;;;;;;9.31;100.00;99495.94;4891986;28;20074;-78
2023/10/28 01:22:49;;;;;;;22.08;14.48;;;;;;;9.33;100.00;99507.28;4925937;29;20357;-80
2023/10/28 01:25:17;;;;;;;24.65;15.73;;;;;;;9.35;100.00;99502.03;4923321;28;20063;-79
2023/10/28 01:27:45;;;;;;;21.77;14.77;;;;;;;9.36;100.00;99499.38;4905466;29;20051;-78
2023/10/28 01:30:16;;;;;;;22.73;14.50;;;;;;;9.39;100.00;99497.59;4921447;29;20142;-80
2023/10/28 01:32:44;;;;;;;29.08;16.63;;;;;;;9.39;100.00;99498.47;4910868;29;20054;-77
2023/10/28 01:35:14;;;;;;;28.65;15.43;;;;;;;9.41;100.00;99501.06;4889833;28;20070;-79
2023/10/28 01:37:42;;;;;;;24.25;15.85;;;;;;;9.43;100.00;99499.28;4911461;29;20070;-78
2023/10/28 01:40:13;;;;;;;27.23;16.80;;;;;;;9.44;100.00;99498.41;4931930;29;20043;-79
2023/10/28 01:42:45;;;;;;;32.35;16.85;;;;;;;9.44;100.00;99495.78;4926331;29;20039;-78
2023/10/28 01:45:13;;;;;;;;;;;;;;;9.44;100.00;99496.66;4922427;29;20043;-78
2023/10/28 01:47:43;;;;;;;24.30;14.82;;;;;;;9.46;100.00;99499.25;4934637;29;19929;-77
2023/10/28 01:50:13;;;;;;;30.73;17.30;;;;;;;9.47;100.00;99503.59;4890655;28;20039;-79
2023/10/28 01:52:42;;;;;;;29.63;17.50;;;;;;;9.46;100.00;99497.50;4921020;29;20074;-79
2023/10/28 01:55:11;;;;;;;26.70;17.23;;;;;;;9.46;100.00;99494.84;4908893;29;20460;-78
2023/10/28 01:57:39;;;;;;;29.30;16.58;;;;;;;9.47;100.00;99506.25;4894438;29;20055;-80
2023/10/28 02:00:12;;;;;;;30.65;17.13;;;;;;;9.48;100.00;99506.22;4895485;29;20051;-79
2023/10/28 02:02:45;;;;;;;36.90;18.58;;;;;;;9.48;100.00;99502.72;4953561;29;20035;-80
2023/10/28 02:05:15;;;;;;;;;;;;;;;9.49;100.00;99507.09;4925766;29;20040;-79
2023/10/28 02:07:43;;;;;;;32.03;16.42;;;;;;;9.49;100.00;99509.72;4909066;28;20250;-79
2023/10/28 02:10:11;;;;;;;35.13;18.60;;;;;;;9.50;100.00;99503.56;4905029;29;20062;-78
2023/10/28 02:12:38;;;;;;;35.35;18.67;;;;;;;9.52;100.00;99504.44;4907375;29;20047;-78
2023/10/28 02:15:09;;;;;;;37.95;19.55;;;;;;;9.52;100.00;99504.44;4922194;29;20054;-78
2023/10/28 02:17:38;;;;;;;32.45;19.30;;;;;;;9.52;100.00;99497.41;4904936;29;20528;-77
2023/10/28 02:20:06;;;;;;;36.75;19.33;;;;;;;9.55;100.00;99504.38;4911191;29;20055;-78
2023/10/28 02:22:35;;;;;;;38.65;20.05;;;;;;;9.55;100.00;99493.88;4875121;29;20055;-78
2023/10/28 02:25:03;;;;;;;38.13;21.75;;;;;;;9.56;100.00;99499.13;4900709;29;20050;-79
2023/10/28 02:27:32;;;;;;;40.42;20.65;;;;;;;9.57;100.00;99499.97;4916821;28;20060;-79
2023/10/28 02:30:00;;;;;;;40.70;21.08;;;;;;;9.59;100.00;99495.56;4925191;29;20668;-78
2023/10/28 02:32:27;;;;;;;34.17;19.92;;;;;;;9.60;100.00;99499.06;4901319;29;20052;-78
2023/10/28 02:34:55;;;;;;;39.28;21.60;;;;;;;9.60;100.00;99505.16;4916752;29;20659;-78
2023/10/28 02:37:23;;;;;;;37.13;21.85;;;;;;;9.59;100.00;99506.09;4917963;28;20070;-77
2023/10/28 02:39:50;;;;;;;40.45;21.33;;;;;;;9.62;100.00;99502.53;4870926;28;20496;-78
2023/10/28 02:42:17;;;;;;;42.72;22.48;;;;;;;9.63;100.00;99509.53;4916681;28;20058;-79
2023/10/28 02:44:45;;;;;;;44.53;22.35;;;;;;;9.63;100.00;99509.53;4924918;29;20047;-78
2023/10/28 02:47:12;;;;;;;38.58;21.85;;;;;;;9.62;100.00;99499.91;4942620;28;20047;-78
2023/10/28 02:49:39;;;;;;;42.90;23.10;;;;;;;9.63;100.00;99505.13;4931340;29;20382;-79
2023/10/28 02:52:07;;;;;;;50.92;24.73;;;;;;;9.63;100.00;99510.41;4952620;29;20031;-79
2023/10/28 02:54:35;;;;;;;43.65;23.38;;;;;;;9.65;100.00;99508.63;4870185;28;20048;-78
2023/10/28 02:57:03;;;;;;;50.20;24.75;;;;;;;9.67;100.00;99505.97;4911916;29;20062;-78
2023/10/28 02:59:30;;;;;;;48.83;24.90;;;;;;;9.67;100.00;99492.81;4907984;29;20059;-79
2023/10/28 03:01:57;;;;;;;49.78;25.10;;;;;;;9.68;100.00;99505.94;4908550;28;20516;-77
2023/10/28 03:04:25;;;;;;;41.58;23.77;;;;;;;9.68;100.00;99500.69;4936939;29;20055;-78
2023/10/28 03:06:52;;;;;;;51.53;25.23;;;;;;;9.68;100.00;99499.84;4901724;29;20512;-77
2023/10/28 03:09:22;;;;;;;50.17;24.77;;;;;;;9.68;100.00;99499.84;4912711;28;20047;-78
2023/10/28 03:11:49;;;;;;;51.33;25.45;;;;;;;9.68;100.00;99500.69;4914336;29;20059;-78
2023/10/28 03:14:17;;;;;;;48.15;25.98;;;;;;;9.68;100.00;99505.94;4915444;29;20409;-80
2023/10/28 03:16:46;;;;;;;51.72;26.35;;;;;;;9.67;100.00;99509.47;4926031;28;20633;-78
2023/10/28 03:19:13;;;;;;;48.22;26.15;;;;;;;9.68;100.00;99513.84;4923303;29;20051;-79
2023/10/28 03:21:40;;;;;;;49.53;26.25;;;;;;;9.68;100.00;99502.47;4935738;29;20825;-78
2023/10/28 03:24:08;;;;;;;49.55;27.50;;;;;;;9.68;100.00;99502.47;4877065;29;20062;-77
2023/10/28 03:26:35;;;;;;;50.92;27.77;;;;;;;9.67;100.00;99504.19;4942992;28;20058;-78
2023/10/28 03:29:03;;;;;;;51.30;27.75;;;;;;;9.68;100.00;99508.59;4943668;28;20401;-79
2023/10/28 03:31:30;;;;;;;50.28;27.30;;;;;;;9.68;100.00;99499.84;4913333;29;20143;-79
2023/10/28 03:33:58;;;;;;;46.13;26.67;;;;;;;9.67;100.00;99498.94;4922348;29;20528;-79
2023/10/28 03:36:26;;;;;;;57.70;27.38;;;;;;;9.67;100.00;99498.94;4956327;29;20393;-79
2023/10/28 03:38:55;;;;;;;54.88;27.83;;;;;;;9.67;100.00;99505.97;4884161;28;21854;-79
2023/10/28 03:41:23;;;;;;;52.50;28.42;;;;;;;9.68;100.00;99503.31;4905456;29;20055;-78
2023/10/28 03:43:50;;;;;;;58.05;29.80;;;;;;;9.68;100.00;99508.59;4902499;28;20417;-80
2023/10/28 03:46:18;;;;;;;56.88;29.70;;;;;;;9.68;100.00;99500.69;4921840;29;20066;-78
2023/10/28 03:48:45;;;;;;;55.50;28.63;;;;;;;9.67;100.00;99501.56;4898158;29;20051;-78
2023/10/28 03:51:16;;;;;;;;;;;;;;;9.68;100.00;99510.34;4956206;29;20050;-78
2023/10/28 03:53:43;;;;;;;60.65;31.42;;;;;;;9.69;100.00;99512.06;4936777;29;19923;-78
2023/10/28 03:56:11;;;;;;;57.55;29.15;;;;;;;9.69;100.00;99507.66;4884096;29;20044;-80
2023/10/28 03:58:39;;;;;;;53.90;28.88;;;;;;;9.69;100.00;99512.94;4885665;28;20055;-79
2023/10/28 04:01:07;;;;;;;61.03;30.98;;;;;;;9.69;100.00;99515.56;4916611;29;20051;-79
2023/10/28 04:03:35;;;;;;;50.63;29.25;;;;;;;9.70;100.00;99513.81;4889998;28;20051;-80
2023/10/28 04:06:02;;;;;;;65.10;31.00;;;;;;;9.71;100.00;99516.41;4952466;28;20043;-78
2023/10/28 04:08:33;;;;;;;58.85;31.08;;;;;;;9.71;100.00;99511.16;4911274;29;20051;-79
2023/10/28 04:11:00;;;;;;;54.72;30.52;;;;;;;9.71;100.00;99510.28;4895604;29;20055;-78
2023/10/28 04:13:28;;;;;;;57.80;30.58;;;;;;;9.71;100.00;99511.16;4909200;28;20058;-78
2023/10/28 04:15:55;;;;;;;56.90;29.65;;;;;;;9.71;100.00;99505.88;4895745;29;20059;-79
2023/10/28 04:18:23;;;;;;;48.80;29.75;;;;;;;9.73;100.00;99511.13;4918830;29;20073;-79
2023/10/28 04:20:50;;;;;;;53.25;30.05;;;;;;;9.73;100.00;99508.50;4924347;29;20066;-78
2023/10/28 04:23:18;;;;;;;60.60;30.15;;;;;;;9.73;100.00;99503.25;4916687;28;20567;-78
2023/10/28 04:25:45;;;;;;;61.92;30.73;;;;;;;9.74;100.00;99513.75;4897893;29;20051;-77
2023/10/28 04:28:13;;;;;;;52.13;29.85;;;;;;;9.73;100.00;99503.25;4894987;28;20370;-78
2023/10/28 04:30:40;;;;;;;52.85;28.98;;;;;;;9.72;100.00;99504.16;4886226;29;20051;-79
2023/10/28 04:33:07;;;;;;;51.33;29.73;;;;;;;9.71;100.00;99510.28;4916911;29;20158;-78
2023/10/28 04:35:35;;;;;;;56.00;30.30;;;;;;;9.71;100.00;99510.28;4901346;29;20059;-78
2023/10/28 04:38:02;;;;;;;49.85;28.38;;;;;;;9.70;100.00;99504.16;4929374;29;20044;-79
2023/10/28 04:40:30;;;;;;;56.95;29.00;;;;;;;9.70;100.00;99504.16;4922204;29;20066;-78
2023/10/28 04:43:01;;;;;;;52.00;27.75;;;;;;;9.69;100.00;99507.66;4897487;29;20055;-78
2023/10/28 04:45:28;;;;;;;56.42;27.92;;;;;;;9.68;100.00;99500.69;4900030;28;20058;-78
2023/10/28 04:47:55;;;;;;;52.97;29.42;;;;;;;9.67;100.00;99504.19;4936978;29;20425;-79
2023/10/28 04:50:23;;;;;;;52.13;25.70;;;;;;;9.67;100.00;99505.97;4927800;28;20058;-78
2023/10/28 04:52:50;;;;;;;46.55;26.95;;;;;;;9.67;100.00;99505.97;4934160;29;20436;-80
2023/10/28 04:55:17;;;;;;;54.60;28.33;;;;;;;9.67;100.00;99506.84;4917453;29;20046;-80
2023/10/28 04:57:45;;;;;;;51.65;27.88;;;;;;;9.67;100.00;99501.56;4929360;29;20072;-77
2023/10/28 05:00:13;;;;;;;51.15;28.15;;;;;;;9.68;100.00;99502.47;4866086;29;20050;-80
2023/10/28 05:02:40;;;;;;;45.80;26.88;;;;;;;9.67;100.00;99511.22;4907879;29;20047;-79
2023/10/28 05:05:08;;;;;;;48.35;26.55;;;;;;;9.68;100.00;99499.84;4905547;29;20050;-78
2023/10/28 05:07:35;;;;;;;51.50;27.40;;;;;;;9.67;100.00;99498.06;4907128;29;20054;-79
2023/10/28 05:10:03;;;;;;;51.08;27.25;;;;;;;9.65;100.00;99499.88;4937962;29;20047;-79
2023/10/28 05:12:32;;;;;;;46.55;26.63;;;;;;;9.63;100.00;99489.38;4913730;29;20246;-79
2023/10/28 05:14:59;;;;;;;47.72;26.23;;;;;;;9.63;100.00;99497.25;4878450;29;20051;-79
2023/10/28 05:17:28;;;;;;;47.15;26.05;;;;;;;9.63;100.00;99493.75;4905733;29;20066;-78
2023/10/28 05:19:55;;;;;;;47.05;25.63;;;;;;;9.63;100.00;99499.88;4935892;29;20047;-80
2023/10/28 05:22:23;;;;;;;48.60;26.15;;;;;;;9.62;100.00;99487.63;4887953;29;20055;-78
2023/10/28 05:24:54;;;;;;;45.40;25.67;;;;;;;9.64;100.00;99499.00;4909993;29;20063;-79
2023/10/28 05:27:21;;;;;;;;;;;;;;;9.65;100.00;99505.13;4908411;29;20408;-78
2023/10/28 05:29:49;;;;;;;54.08;27.05;;;;;;;9.65;100.00;99506.00;4867065;29;19930;-78
2023/10/28 05:32:16;;;;;;;45.83;25.55;;;;;;;9.64;100.00;99495.47;4897228;29;20058;-78
2023/10/28 05:34:43;;;;;;;46.15;26.48;;;;;;;9.65;100.00;99503.34;4881973;29;20056;-79
2023/10/28 05:37:11;;;;;;;60.97;28.15;;;;;;;9.65;100.00;99500.72;4911650;29;20290;-79
2023/10/28 05:39:41;;;;;;;47.60;25.30;;;;;;;9.65;100.00;99506.00;4945255;29;20482;-79
2023/10/28 05:42:11;;;;;;;46.05;24.48;;;;;;;9.66;100.00;99507.75;4871899;29;20047;-79
2023/10/28 05:44:38;;;;;;;59.05;28.02;;;;;;;9.66;100.00;99510.38;4870917;29;20048;-79
2023/10/28 05:47:07;;;;;;;48.45;27.00;;;;;;;9.68;100.00;99510.34;4895043;29;20072;-78
2023/10/28 05:49:35;;;;;;;46.15;26.63;;;;;;;9.67;100.00;99509.47;4900207;29;20056;-79
2023/10/28 05:52:02;;;;;;;45.45;25.70;;;;;;;9.68;100.00;99505.94;4898337;29;20422;-79
2023/10/28 05:54:30;;;;;;;42.22;24.95;;;;;;;9.69;100.00;99512.94;4909190;29;20060;-79
2023/10/28 05:56:58;;;;;;;43.65;24.80;;;;;;;9.69;100.00;99512.06;4918077;29;20052;-79
2023/10/28 05:59:26;;;;;;;48.83;27.60;;;;;;;9.68;100.00;99513.84;4890137;29;20051;-79
2023/10/28 06:01:53;;;;;;;56.78;28.08;;;;;;;9.68;100.00;99515.63;4900392;29;20052;-79
2023/10/28 06:04:22;;;;;;;47.50;27.13;;;;;;;9.67;100.00;99525.25;4899335;29;20047;-79
2023/10/28 06:06:49;;;;;;;45.33;27.40;;;;;;;9.67;100.00;99519.97;4906153;29;20059;-79
2023/10/28 06:09:17;;;;;;;44.20;26.42;;;;;;;9.67;100.00;99519.13;4888560;29;20047;-79
2023/10/28 06:11:44;;;;;;;47.38;23.33;;;;;;;9.67;100.00;99525.25;4915509;29;20062;-79
2023/10/28 06:14:12;;;;;;;35.78;17.95;;;;;;;9.67;100.00;99530.50;4869000;29;20048;-78
2023/10/28 06:16:39;;;;;;;35.17;18.48;;;;;;;9.67;100.00;99538.41;4862005;29;20058;-77
2023/10/28 06:19:07;;;;;;;34.45;17.63;;;;;;;9.65;100.00;99542.81;4910931;29;20062;-78
2023/10/28 06:21:35;;;;;;;33.58;17.52;;;;;;;9.67;100.00;99542.78;4916191;29;20059;-79
2023/10/28 06:24:05;;;;;;;32.78;16.10;;;;;;;9.66;100.00;99544.56;4893697;29;20044;-77
2023/10/28 06:26:32;;;;;;;37.38;17.42;;;;;;;9.66;100.00;99547.19;4905529;29;20056;-78
2023/10/28 06:29:00;;;;;;;34.90;15.63;;;;;;;9.66;100.00;99541.94;4915560;29;20066;-79
2023/10/28 06:31:27;;;;;;;36.33;16.73;;;;;;;9.67;100.00;99546.28;4866521;29;20051;-78
2023/10/28 06:33:54;;;;;;;36.45;17.10;;;;;;;9.66;100.00;99555.09;4903448;29;20048;-78
2023/10/28 06:36:22;;;;;;;39.83;16.40;;;;;;;9.66;100.00;99549.81;4903603;29;20059;-78
2023/10/28 06:38:49;;;;;;;36.30;16.42;;;;;;;9.65;100.00;99558.59;4892683;29;20064;-79
2023/10/28 06:41:17;;;;;;;39.78;16.10;;;;;;;9.65;100.00;99549.84;4921342;29;20396;-78
2023/10/28 06:43:44;;;;;;;33.05;16.55;;;;;;;9.64;100.00;99553.34;4884498;29;20056;-77
2023/10/28 06:46:11;;;;;;;38.15;15.70;;;;;;;9.65;100.00;99552.47;4897546;29;20056;-78
2023/10/28 06:48:39;;;;;;;32.25;16.40;;;;;;;9.64;100.00;99551.59;4895813;29;20603;-78
2023/10/28 06:51:08;;;;;;;36.45;15.73;;;;;;;9.64;100.00;99559.50;4879333;29;20054;-77
2023/10/28 06:53:35;;;;;;;33.38;15.50;;;;;;;9.65;100.00;99563.00;4922601;29;20096;-78
2023/10/28 06:56:03;;;;;;;36.70;15.55;;;;;;;9.65;100.00;99553.34;4886353;29;20067;-79
2023/10/28 06:58:30;;;;;;;39.92;16.08;;;;;;;9.65;100.00;99561.22;4888798;29;20051;-79
2023/10/28 07:00:58;;;;;;;38.03;15.60;;;;;;;9.67;100.00;99564.69;4915616;29;20056;-78
2023/10/28 07:03:26;;;;;;;41.13;15.15;;;;;;;9.67;100.00;99575.22;4860826;29;20047;-79
2023/10/28 07:05:53;;;;;;;34.47;15.02;;;;;;;9.68;100.00;99569.09;4901131;29;20075;-78
2023/10/28 07:08:20;;;;;;;38.88;15.90;;;;;;;9.69;100.00;99583.09;4897116;29;20500;-77
2023/10/28 07:10:48;;;;;;;36.40;15.23;;;;;;;9.71;100.00;99576.91;4886255;29;20060;-78
2023/10/28 07:13:16;;;;;;;32.05;15.90;;;;;;;9.73;100.00;99585.69;4896875;29;20051;-77
2023/10/28 07:15:44;;;;;;;35.55;16.48;;;;;;;9.74;100.00;99584.78;4929452;29;20051;-78
2023/10/28 07:18:13;;;;;;;34.63;15.57;;;;;;;9.75;100.00;99586.53;4845460;29;20082;-79
2023/10/28 07:20:41;;;;;;;32.80;13.85;;;;;;;9.76;100.00;99580.34;4894883;29;20086;-78
2023/10/28 07:23:08;;;;;;;47.55;18.23;;;;;;;9.78;100.00;99584.75;4896481;29;20062;-78
2023/10/28 07:25:36;;;;;;;32.20;16.33;;;;;;;9.81;100.00;99589.94;4888069;28;20066;-78
2023/10/28 07:28:12;;;;;;;35.72;16.60;;;;;;;9.82;100.00;99587.28;4933073;29;20055;-78
2023/10/28 07:30:48;;;;;;;43.72;18.58;;;;;;;9.85;100.00;99586.38;4912828;29;20755;-78
2023/10/28 07:33:16;;;;;;;30.65;14.98;;;;;;;9.87;100.00;99588.13;4909726;28;20050;-78
2023/10/28 07:35:47;;;;;;;26.58;15.18;;;;;;;9.89;100.00;99593.34;4906234;29;20514;-79
2023/10/28 07:38:15;;;;;;;35.97;15.48;;;;;;;9.92;100.00;99595.94;4935108;28;20062;-79
2023/10/28 07:40:43;;;;;;;31.85;14.98;;;;;;;9.92;100.00;99604.72;4923287;28;20055;-78
2023/10/28 07:43:11;;;;;;;34.17;16.30;;;;;;;9.94;100.00;99605.56;4937471;29;20055;-77
2023/10/28 07:45:40;;;;;;;34.60;16.02;;;;;;;9.98;100.00;99609.03;4936831;29;20054;-79
2023/10/28 07:48:09;;;;;;;36.60;15.57;;;;;;;10.00;100.00;99601.97;4916870;29;20528;-77
2023/10/28 07:50:36;;;;;;;31.20;16.15;;;;;;;10.01;100.00;99608.97;4890488;29;20060;-78
2023/10/28 07:53:07;;;;;;;39.80;16.55;;;;;;;10.05;100.00;99612.41;4925208;29;20747;-78
2023/10/28 07:55:37;;;;;;;33.97;15.60;;;;;;;10.07;100.00;99619.38;4948480;29;20043;-79
2023/10/28 07:58:07;;;;;;;27.30;15.07;;;;;;;10.07;100.00;99614.13;4945015;28;20055;-79
2023/10/28 08:00:36;;;;;;;34.17;16.38;;;;;;;10.07;100.00;99624.66;4918275;29;20518;-79
2023/10/28 08:03:04;;;;;;;23.83;12.38;;;;;;;10.05;100.00;99621.19;4935288;29;20062;-79
2023/10/28 08:05:31;;;;;;;23.13;11.40;;;;;;;10.02;100.00;99620.34;4875477;29;20047;-78
2023/10/28 08:07:59;;;;;;;21.58;11.50;;;;;;;10.00;100.00;99617.75;4924214;29;20083;-78
2023/10/28 08:10:28;;;;;;;18.80;11.13;;;;;;;9.99;100.00;99618.63;4915683;29;20060;-78
2023/10/28 08:13:00;;;;;;;13.85;9.23;;;;;;;9.99;100.00;99618.63;4937780;28;20059;-78
2023/10/28 08:15:29;;;;;;;18.85;8.98;;;;;;;10.00;100.00;99625.66;4905562;29;20051;-78
2023/10/28 08:17:56;;;;;;;13.88;8.85;;;;;;;9.99;100.00;99625.69;4930917;29;20055;-78
2023/10/28 08:20:24;;;;;;;13.55;8.13;;;;;;;9.99;100.00;99626.53;4868933;29;20058;-78
2023/10/28 08:22:51;;;;;;;14.95;7.85;;;;;;;9.98;100.00;99632.72;4904577;28;20376;-79
2023/10/28 08:25:19;;;;;;;11.60;7.85;;;;;;;10.00;100.00;99636.19;4912811;29;20044;-80
2023/10/28 08:27:47;;;;;;;12.88;7.25;;;;;;;10.00;100.00;99630.91;4902001;28;20051;-78
2023/10/28 08:30:17;;;;;;;11.02;7.10;;;;;;;10.03;100.00;99632.63;4920420;29;21262;-78
2023/10/28 08:32:45;;;;;;;11.57;7.20;;;;;;;10.03;100.00;99622.97;4917911;29;20050;-78
2023/10/28 08:35:12;;;;;;;12.38;7.32;;;;;;;10.08;100.00;99636.94;4894871;29;20413;-78
2023/10/28 08:37:40;;;;;;;11.43;7.85;;;;;;;10.11;100.00;99634.28;4915224;29;20051;-76
2023/10/28 08:40:11;;;;;;;16.65;9.20;;;;;;;10.13;100.00;99629.84;4924145;29;20433;-77
2023/10/28 08:42:38;;;;;;;13.90;7.55;;;;;;;10.18;100.00;99635.03;4911522;29;20043;-77
2023/10/28 08:45:08;;;;;;;11.68;7.60;;;;;;;10.23;100.00;99635.00;4910516;29;20067;-82
2023/10/28 08:47:40;;;;;;;16.42;7.63;;;;;;;10.27;100.00;99629.63;4898136;29;20055;-79
2023/10/28 08:50:08;;;;;;;11.23;7.45;;;;;;;10.33;100.00;99628.72;4941247;29;20046;-81
2023/10/28 08:52:37;;;;;;;10.93;7.25;;;;;;;10.39;100.00;99631.25;4893447;29;20050;-79
2023/10/28 08:55:10;;;;;;;15.48;6.55;;;;;;;10.45;100.00;99625.91;4940559;28;20044;-80
2023/10/28 08:57:44;;;;;;;8.93;6.15;;;;;;;10.51;100.00;99636.34;4912886;29;20056;-79
2023/10/28 09:00:16;;;;;;;12.23;6.85;;;;;;;10.58;100.00;99631.81;4894558;29;20055;-80
2023/10/28 09:02:46;;;;;;;9.43;6.50;;;;;;;10.64;100.00;99636.13;4927441;29;20058;-79
2023/10/28 09:05:14;;;;;;;8.77;6.27;;;;;;;10.67;100.00;99638.72;4936451;29;20517;-79
2023/10/28 09:07:46;;;;;;;9.88;5.95;;;;;;;10.69;100.00;99631.66;4863576;29;20319;-78
2023/10/28 09:10:15;;;;;;;10.65;5.93;;;;;;;10.69;100.00;99634.28;4904332;29;20051;-79
2023/10/28 09:12:43;;;;;;;6.15;5.40;;;;;;;10.72;100.00;99639.53;4917934;29;20047;-79
2023/10/28 09:15:11;;;;;;;9.55;5.63;;;;;;;10.73;100.00;99644.72;4926101;29;20055;-80
2023/10/28 09:17:39;;;;;;;11.30;5.93;;;;;;;10.73;100.00;99659.69;4922061;29;20518;-80
2023/10/28 09:20:11;;;;;;;8.00;6.07;;;;;;;10.73;100.00;99651.78;4926588;29;20055;-79
2023/10/28 09:22:44;;;;;;;5.70;5.10;;;;;;;10.73;100.00;99654.41;4875342;29;20070;-79
2023/10/28 09:25:15;;;;;;;7.78;5.47;;;;;;;10.73;100.00;99650.00;4907209;29;20048;-78
2023/10/28 09:27:45;;;;;;;10.85;6.18;;;;;;;10.75;100.00;99644.72;4915580;29;20501;-78
2023/10/28 09:30:13;;;;;;;8.23;5.07;;;;;;;10.79;100.00;99649.03;4901633;29;20051;-78
2023/10/28 09:32:40;;;;;;;9.32;5.28;;;;;;;10.82;100.00;99649.00;4886786;29;20055;-79
2023/10/28 09:35:09;;;;;;;7.15;5.70;;;;;;;10.85;100.00;99645.44;4884646;29;20048;-80
2023/10/28 09:37:40;;;;;;;8.02;5.10;;;;;;;10.87;100.00;99647.16;4847237;29;20059;-78
2023/10/28 09:40:13;;;;;;;8.10;4.80;;;;;;;10.89;100.00;99642.72;4894897;29;20915;-79
2023/10/28 09:42:43;;;;;;;8.18;4.82;;;;;;;10.92;100.00;99645.28;4907083;29;20063;-79
2023/10/28 09:45:11;;;;;;;5.38;4.78;;;;;;;10.94;100.00;99653.19;4892838;29;20052;-79
2023/10/28 09:47:55;;;;;;;9.93;4.50;;;;;;;10.92;100.00;99652.34;4923461;29;20059;-78
2023/10/28 09:50:25;;;;;;;6.43;4.57;;;;;;;10.93;100.00;99657.59;4934622;29;20044;-79
2023/10/28 09:52:55;;;;;;;8.20;4.60;;;;;;;10.95;100.00;99656.69;4899511;29;20048;-77
2023/10/28 09:55:26;;;;;;;9.05;4.35;;;;;;;10.97;100.00;99655.78;4934647;29;20054;-78
2023/10/28 09:58:04;;;;;;;6.97;3.95;;;;;;;11.04;100.00;99651.25;4889312;29;20051;-78
2023/10/28 10:00:31;;;;;;;5.57;3.92;;;;;;;11.14;100.00;99652.84;4885607;29;20047;-79
2023/10/28 10:03:20;;;;;;;11.30;4.03;;;;;;;11.20;100.00;99650.06;4898494;29;20432;-77
2023/10/28 10:05:47;;;;;;;5.32;3.63;;;;;;;11.27;100.00;99650.84;4909189;29;20043;-77
2023/10/28 10:08:21;;;;;;;5.78;3.83;;;;;;;11.31;100.00;99648.09;4863544;29;20062;-78
2023/10/28 10:10:53;;;;;;;8.25;4.38;;;;;;;11.31;100.00;99653.38;4914224;29;20051;-78
2023/10/28 10:13:23;;;;;;;6.65;4.18;;;;;;;11.34;100.00;99656.84;4898452;29;20054;-79
2023/10/28 10:15:58;;;;;;;4.82;4.40;;;;;;;11.33;100.00;99669.19;4911000;29;20035;-78
2023/10/28 10:18:37;;;;;;;9.15;4.50;;;;;;;11.34;100.00;99659.50;4913406;29;20066;-81
2023/10/28 10:21:12;;;;;;;7.40;4.82;;;;;;;11.36;100.00;99650.69;4915167;29;20494;-79
2023/10/28 10:23:43;;;;;;;6.68;4.47;;;;;;;11.39;100.00;99663.78;4874543;29;20050;-78
2023/10/28 10:26:28;;;;;;;12.10;5.53;;;;;;;11.39;100.00;99652.38;4928895;29;20050;-78
2023/10/28 10:29:00;;;;;;;9.73;5.28;;;;;;;11.41;100.00;99663.75;4891322;29;20055;-78
2023/10/28 10:31:31;;;;;;;5.95;4.30;;;;;;;11.41;100.00;99655.84;4898687;28;20564;-79
2023/10/28 10:34:02;;;;;;;;;;;;;;;11.39;100.00;99653.22;4926229;29;20047;-77
2023/10/28 10:36:30;;;;;;;5.97;4.22;;;;;;;11.39;100.00;99663.78;4932089;29;19933;-80
2023/10/28 10:39:15;;;;;;;5.53;3.88;;;;;;;11.39;100.00;99662.94;4914511;28;20051;-78
2023/10/28 10:41:46;;;;;;;4.80;3.72;;;;;;;11.37;100.00;99657.66;4922919;29;20047;-77
2023/10/28 10:44:27;;;;;;;6.00;4.18;;;;;;;11.33;100.00;99661.28;4903663;28;20047;-77
2023/10/28 10:46:56;;;;;;;8.02;4.60;;;;;;;11.31;100.00;99653.38;4936761;28;20046;-78
2023/10/28 10:49:24;;;;;;;10.02;3.90;;;;;;;11.30;100.00;99664.84;4947133;29;20047;-79
2023/10/28 10:51:52;;;;;;;10.75;4.55;;;;;;;11.29;100.00;99668.38;4936895;29;20059;-78
2023/10/28 10:54:20;;;;;;;6.13;3.92;;;;;;;11.28;100.00;99656.06;4886984;28;20043;-78
2023/10/28 10:56:50;;;;;;;10.45;3.97;;;;;;;11.29;100.00;99646.41;4919794;29;20051;-77
2023/10/28 10:59:18;;;;;;;8.50;3.70;;;;;;;11.30;100.00;99654.31;4930921;29;20452;-77
2023/10/28 11:01:46;;;;;;;7.93;4.65;;;;;;;11.30;100.00;99651.66;4879328;29;20051;-78
2023/10/28 11:04:14;;;;;;;7.72;4.00;;;;;;;11.32;100.00;99654.25;4933599;29;20051;-78
2023/10/28 11:06:42;;;;;;;5.35;3.92;;;;;;;11.34;100.00;99652.44;4945776;29;20047;-78
2023/10/28 11:09:09;;;;;;;5.93;3.70;;;;;;;11.38;100.00;99650.63;4912231;29;20054;-76
2023/10/28 11:11:38;;;;;;;9.02;3.65;;;;;;;11.41;100.00;99650.56;4891633;29;20497;-79
2023/10/28 11:14:05;;;;;;;9.07;3.70;;;;;;;11.42;100.00;99649.69;4943704;28;20047;-77
2023/10/28 11:16:33;;;;;;;8.32;3.65;;;;;;;11.42;100.00;99649.69;4920599;29;20058;-77
2023/10/28 11:19:05;;;;;;;9.80;3.75;;;;;;;11.44;100.00;99647.88;4919163;29;20039;-79
2023/10/28 11:21:32;;;;;;;15.02;7.55;;;;;;;11.46;100.00;99654.00;4944293;29;20051;-77
2023/10/28 11:24:00;;;;;;;8.13;3.88;;;;;;;11.49;100.00;99648.66;4929016;29;20062;-77
2023/10/28 11:26:27;;;;;;;8.60;4.25;;;;;;;11.52;100.00;99638.03;4862492;28;20047;-78